^^
Station Historical Data
Daily Summary for June 3, 2021 Units:  English    Metric   Both
Daily Weekly Monthly Yearly
  High: Low: Average:
Temperature: 63.7 °F 59.8 °F 61.6 °F
Dew Point: 59.7 °F 56.6 °F 58.2 °F
Humidity: 93% 81% 89%
Wind Speed: 2mph 0mph 0.1mph
Wind Gust: 2mph - -
Wind- - WSW
Pressure: 29.90 in 29.83 in -
Precipitation: 0.00 in    
 
 
Tabular Data for June 3, 2021
Time Temperature Dew Point Pressure Wind Wind Speed Wind Gust Humidity Rainfall Rate (Hourly) solar
00:00 63.7 °F 58.1 °F 29.90 in Calm     82% 0.00 in 0 W/m2
00:05 63.6 °F 57.7 °F 29.90 in Calm     81% 0.00 in 0 W/m2
00:10 63.5 °F 57.6 °F 29.90 in Calm     81% 0.00 in 0 W/m2
00:15 63.6 °F 58.3 °F 29.90 in Calm     83% 0.00 in 0 W/m2
00:20 63.5 °F 58.2 °F 29.89 in Calm     83% 0.00 in 0 W/m2
00:25 63.4 °F 58.1 °F 29.89 in Calm     83% 0.00 in 0 W/m2
00:30 63.4 °F 58.5 °F 29.89 in Calm     84% 0.00 in 0 W/m2
00:35 63.3 °F 58 °F 29.89 in Calm     83% 0.00 in 0 W/m2
00:40 63.3 °F 58 °F 29.89 in Calm     83% 0.00 in 0 W/m2
00:45 63.3 °F 58.4 °F 29.88 in Calm     84% 0.00 in 0 W/m2
00:50 63.1 °F 58.2 °F 29.88 in Calm     84% 0.00 in 0 W/m2
00:55 63.1 °F 58.2 °F 29.88 in Calm     84% 0.00 in 0 W/m2
01:00 63.1 °F 58.2 °F 29.88 in Calm     84% 0.00 in 0 W/m2
01:05 63 °F 58.4 °F 29.88 in Calm     85% 0.00 in 0 W/m2
01:10 62.9 °F 58.3 °F 29.87 in Calm     85% 0.00 in 0 W/m2
01:15 62.9 °F 58.3 °F 29.87 in Calm     85% 0.00 in 0 W/m2
01:20 62.9 °F 58.3 °F 29.88 in Calm     85% 0.00 in 0 W/m2
01:25 62.8 °F 58.2 °F 29.88 in Calm     85% 0.00 in 0 W/m2
01:30 62.8 °F 58.2 °F 29.88 in Calm     85% 0.00 in 0 W/m2
01:35 62.8 °F 58.5 °F 29.87 in Calm     86% 0.00 in 0 W/m2
01:40 62.7 °F 58.5 °F 29.87 in Calm     86% 0.00 in 0 W/m2
01:45 62.6 °F 58.4 °F 29.87 in Calm     86% 0.00 in 0 W/m2
01:50 62.6 °F 58.4 °F 29.87 in Calm     86% 0.00 in 0 W/m2
01:55 62.5 °F 58.3 °F 29.86 in Calm     86% 0.00 in 0 W/m2
02:00 62.4 °F 58.5 °F 29.86 in Calm     87% 0.00 in 0 W/m2
02:05 62.3 °F 58.4 °F 29.86 in Calm     87% 0.00 in 0 W/m2
02:10 62.3 °F 58.4 °F 29.86 in Calm     87% 0.00 in 0 W/m2
02:15 62.3 °F 58.4 °F 29.86 in Calm     87% 0.00 in 0 W/m2
02:20 62.3 °F 58.4 °F 29.87 in Calm     87% 0.00 in 0 W/m2
02:25 62.3 °F 58.4 °F 29.87 in Calm     87% 0.00 in 0 W/m2
02:30 62.3 °F 58.4 °F 29.87 in Calm     87% 0.00 in 0 W/m2
02:35 62.3 °F 58.7 °F 29.87 in Calm     88% 0.00 in 0 W/m2
02:40 62.3 °F 58.7 °F 29.86 in Calm     88% 0.00 in 0 W/m2
02:45 62.3 °F 58.7 °F 29.86 in Calm     88% 0.00 in 0 W/m2
02:50 62.3 °F 58.7 °F 29.86 in Calm     88% 0.00 in 0 W/m2
02:55 62.2 °F 58.6 °F 29.86 in Calm     88% 0.00 in 0 W/m2
03:00 62.2 °F 58.6 °F 29.86 in Calm     88% 0.00 in 0 W/m2
03:05 62.1 °F 58.5 °F 29.85 in Calm     88% 0.00 in 0 W/m2
03:10 62.2 °F 58.6 °F 29.85 in Calm     88% 0.00 in 0 W/m2
03:15 62.1 °F 58.5 °F 29.85 in Calm     88% 0.00 in 0 W/m2
03:20 62 °F 58.4 °F 29.85 in Calm     88% 0.00 in 0 W/m2
03:25 62 °F 58.4 °F 29.85 in Calm     88% 0.00 in 0 W/m2
03:30 61.9 °F 58.3 °F 29.85 in Calm     88% 0.00 in 0 W/m2
03:35 61.8 °F 57.9 °F 29.85 in Calm     87% 0.00 in 0 W/m2
03:40 61.8 °F 57.9 °F 29.85 in Calm     87% 0.00 in 0 W/m2
03:45 61.7 °F 58.1 °F 29.85 in Calm     88% 0.00 in 0 W/m2
03:50 61.6 °F 57.7 °F 29.84 in Calm     87% 0.00 in 0 W/m2
03:55 61.5 °F 57.6 °F 29.84 in Calm     87% 0.00 in 0 W/m2
04:00 61.4 °F 57.8 °F 29.84 in Calm     88% 0.00 in 0 W/m2
04:05 61.3 °F 57.7 °F 29.84 in Calm     88% 0.00 in 0 W/m2
04:10 61.1 °F 57.5 °F 29.84 in Calm     88% 0.00 in 0 W/m2
04:15 61 °F 57.1 °F 29.84 in Calm     87% 0.00 in 0 W/m2
04:20 60.9 °F 57 °F 29.84 in Calm     87% 0.00 in 0 W/m2
04:25 60.9 °F 57.3 °F 29.84 in Calm     88% 0.00 in 0 W/m2
04:30 61.1 °F 57.8 °F 29.84 in Calm     89% 0.00 in 0 W/m2
04:35 61.2 °F 58.2 °F 29.84 in Calm     90% 0.00 in 0 W/m2
04:40 61.3 °F 58 °F 29.84 in Calm     89% 0.00 in 0 W/m2
04:45 61.2 °F 58.2 °F 29.84 in Calm     90% 0.00 in 0 W/m2
04:50 61.2 °F 58.2 °F 29.84 in Calm     90% 0.00 in 0 W/m2
04:55 61.2 °F 58.2 °F 29.84 in Calm     90% 0.00 in 0 W/m2
05:00 61.1 °F 58.1 °F 29.84 in Calm     90% 0.00 in 0 W/m2
05:05 61.1 °F 57.8 °F 29.84 in Calm     89% 0.00 in 0 W/m2
05:10 61.1 °F 57.8 °F 29.84 in Calm     89% 0.00 in 0 W/m2
05:15 61 °F 57.7 °F 29.84 in Calm     89% 0.00 in 0 W/m2
05:20 61 °F 57.7 °F 29.84 in Calm     89% 0.00 in 0 W/m2
05:25 60.9 °F 57.6 °F 29.84 in Calm     89% 0.00 in 0 W/m2
05:30 60.9 °F 57.6 °F 29.84 in Calm     89% 0.00 in 0 W/m2
05:35 60.9 °F 57.6 °F 29.83 in Calm     89% 0.00 in 0 W/m2
05:40 60.9 °F 57.6 °F 29.83 in Calm     89% 0.00 in 0 W/m2
05:45 60.8 °F 57.5 °F 29.83 in Calm     89% 0.00 in 0 W/m2
05:50 60.6 °F 57.3 °F 29.83 in Calm     89% 0.00 in 0 W/m2
05:55 60.5 °F 57.2 °F 29.83 in Calm     89% 0.00 in 0 W/m2
06:00 60.4 °F 57.1 °F 29.83 in Calm     89% 0.00 in 5 W/m2
06:05 60.4 °F 57.1 °F 29.83 in Calm     89% 0.00 in 9 W/m2
06:10 60.3 °F 57 °F 29.83 in Calm     89% 0.00 in 12 W/m2
06:15 60.2 °F 56.9 °F 29.83 in Calm     89% 0.00 in 14 W/m2
06:20 60.1 °F 56.8 °F 29.83 in Calm     89% 0.00 in 19 W/m2
06:25 60 °F 56.7 °F 29.83 in Calm     89% 0.00 in 21 W/m2
06:30 60 °F 56.7 °F 29.83 in Calm     89% 0.00 in 25 W/m2
06:35 59.9 °F 56.6 °F 29.83 in Calm     89% 0.00 in 30 W/m2
06:40 60.3 °F 57.4 °F 29.83 in Calm     90% 0.00 in 33 W/m2
06:45 60.7 °F 57.7 °F 29.83 in Calm     90% 0.00 in 32 W/m2
06:50 61.1 °F 58.1 °F 29.83 in Calm     90% 0.00 in 33 W/m2
06:55 61.3 °F 58.7 °F 29.83 in Calm   1 mph 91% 0.00 in 51 W/m2
07:00 61.6 °F 58.9 °F 29.84 in Calm     91% 0.00 in 40 W/m2
07:05 61.5 °F 58.8 °F 29.84 in Calm     91% 0.00 in 47 W/m2
07:10 61.2 °F 58.6 °F 29.84 in Calm   1 mph 91% 0.00 in 35 W/m2
07:15 60.9 °F 58.3 °F 29.84 in Calm   1 mph 91% 0.00 in 53 W/m2
07:20 60.5 °F 57.9 °F 29.84 in Calm     91% 0.00 in 91 W/m2
07:25 60.4 °F 57.8 °F 29.84 in Calm     91% 0.00 in 88 W/m2
07:30 60.4 °F 58.1 °F 29.85 in Calm     92% 0.00 in 67 W/m2
07:35 60.5 °F 58.2 °F 29.85 in Calm     92% 0.00 in 79 W/m2
07:40 60.5 °F 58.2 °F 29.84 in Calm     92% 0.00 in 134 W/m2
07:45 60.4 °F 58.1 °F 29.85 in Calm     92% 0.00 in 105 W/m2
07:50 60.3 °F 58 °F 29.85 in Calm     92% 0.00 in 109 W/m2
07:55 60.1 °F 57.8 °F 29.85 in Calm     92% 0.00 in 102 W/m2
08:00 59.8 °F 57.5 °F 29.85 in Calm     92% 0.00 in 142 W/m2
08:05 59.9 °F 57.6 °F 29.85 in Calm     92% 0.00 in 100 W/m2
08:10 60.1 °F 58.1 °F 29.85 in Calm     93% 0.00 in 123 W/m2
08:15 60.3 °F 58.3 °F 29.85 in Calm     93% 0.00 in 141 W/m2
08:20 60.4 °F 58.4 °F 29.85 in Calm     93% 0.00 in 116 W/m2
08:25 60.7 °F 58.7 °F 29.85 in Calm     93% 0.00 in 98 W/m2
08:30 60.7 °F 58.7 °F 29.85 in Calm     93% 0.00 in 137 W/m2
08:35 60.8 °F 58.8 °F 29.85 in Calm     93% 0.00 in 171 W/m2
08:40 60.9 °F 58.9 °F 29.85 in Calm   1 mph 93% 0.00 in 204 W/m2
08:45 61 °F 59 °F 29.85 in Calm   1 mph 93% 0.00 in 192 W/m2
08:50 61.1 °F 59.1 °F 29.84 in Calm     93% 0.00 in 229 W/m2
08:55 61.1 °F 59.1 °F 29.85 in SW 1 mph 1 mph 93% 0.00 in 172 W/m2
09:00 61.1 °F 59.1 °F 29.85 in SSW 1 mph 1 mph 93% 0.00 in 251 W/m2
09:05 61.2 °F 59.2 °F 29.85 in NW 1 mph 1 mph 93% 0.00 in 218 W/m2
09:10 61.1 °F 58.8 °F 29.85 in WSW 1 mph 1 mph 92% 0.00 in 281 W/m2
09:15 61.3 °F 59 °F 29.85 in WSW 1 mph 1 mph 92% 0.00 in 241 W/m2
09:20 61.4 °F 59.1 °F 29.85 in WSW 1 mph 1 mph 92% 0.00 in 281 W/m2
09:25 61.6 °F 59.3 °F 29.85 in WSW 1 mph 1 mph 92% 0.00 in 225 W/m2
09:30 61.7 °F 59.4 °F 29.85 in WSW 1 mph 1 mph 92% 0.00 in 306 W/m2
09:35 61.9 °F 59.2 °F 29.85 in SW 1 mph 1 mph 91% 0.00 in 302 W/m2
09:40 62.2 °F 59.5 °F 29.85 in SW 1 mph 1 mph 91% 0.00 in 320 W/m2
09:45 62.3 °F 59.3 °F 29.85 in Calm   1 mph 90% 0.00 in 323 W/m2
09:50 62.6 °F 59.6 °F 29.85 in Calm   1 mph 90% 0.00 in 346 W/m2
09:55 62.8 °F 59.5 °F 29.85 in SW 1 mph 1 mph 89% 0.00 in 309 W/m2
10:00 62.9 °F 59.6 °F 29.86 in SW 1 mph 1 mph 89% 0.00 in 301 W/m2
10:05 62.9 °F 59.6 °F 29.86 in West 1 mph 2 mph 89% 0.00 in 329 W/m2
10:10 63 °F 59.7 °F 29.86 in West 2 mph 2 mph 89% 0.00 in 304 W/m2
Sand Point, Michigan, USA
Compliments of Weather Underground - 2 mb